Time;durP1;ratioP1;P1;durP2;ratioP2;P2;SDS_P1;SDS_P2;PMS_P1;PMS_P2;Temp;Humidity;BMP_temperature;BMP_pressure;BME280_temperature;BME280_humidity;BME280_pressure;Samples;Min_cycle;Max_cycle;Signal;HPM_P1;HPM_P2
2023/01/01 00:01:07;;;;;;;14.15;9.20;;;;;;;1.23;88.73;99089.06;5080050;27;20031;-72
2023/01/01 00:03:32;;;;;;;14.40;8.65;;;;;;;1.19;88.62;99069.13;5118840;27;20036;-70
2023/01/01 00:05:56;;;;;;;15.45;8.05;;;;;;;1.29;88.43;99072.19;5100102;27;20107;-71
2023/01/01 00:08:22;;;;;;;14.38;8.07;;;;;;;1.39;88.86;99073.50;5082837;27;20038;-72
2023/01/01 00:10:46;;;;;;;13.98;8.30;;;;;;;1.21;88.20;99067.28;5082830;27;20064;-70
2023/01/01 00:13:13;;;;;;;13.43;8.10;;;;;;;1.17;88.13;99076.19;5099611;27;20031;-70
2023/01/01 00:15:37;;;;;;;6.88;4.57;;;;;;;1.43;88.66;99056.69;5082933;27;20126;-68
2023/01/01 00:18:02;;;;;;;13.50;7.57;;;;;;;1.29;88.55;99064.31;5118721;27;20149;-67
2023/01/01 00:20:26;;;;;;;11.52;7.32;;;;;;;1.29;88.53;99053.81;5097068;27;20043;-69
2023/01/01 00:22:52;;;;;;;9.23;5.93;;;;;;;1.32;88.19;99048.44;5082777;27;20039;-68
2023/01/01 00:25:17;;;;;;;12.15;7.03;;;;;;;1.38;88.87;99046.38;5118944;27;20065;-70
2023/01/01 00:27:42;;;;;;;12.30;7.22;;;;;;;1.40;88.42;99041.91;5119901;27;20130;-69
2023/01/01 00:30:08;;;;;;;9.90;6.25;;;;;;;1.40;88.27;99047.19;5120585;27;20054;-68
2023/01/01 00:32:33;;;;;;;11.45;7.57;;;;;;;1.23;88.17;99044.44;5106900;27;20508;-68
2023/01/01 00:34:58;;;;;;;12.80;7.43;;;;;;;1.27;87.98;99037.25;5098386;27;20031;-69
2023/01/01 00:37:22;;;;;;;11.05;6.25;;;;;;;1.31;88.46;99023.94;5082850;27;20412;-69
2023/01/01 00:39:47;;;;;;;10.98;6.57;;;;;;;1.19;88.23;99023.63;5081624;27;20424;-72
2023/01/01 00:42:12;;;;;;;8.60;6.00;;;;;;;1.20;88.02;99018.31;5082830;27;20523;-70
2023/01/01 00:44:36;;;;;;;10.25;7.45;;;;;;;1.31;89.21;99015.22;5082586;27;20583;-70
2023/01/01 00:47:01;;;;;;;8.52;6.45;;;;;;;1.26;88.98;99009.31;5118153;27;20513;-68
2023/01/01 00:49:26;;;;;;;9.63;6.05;;;;;;;1.11;88.77;98997.72;5099337;27;20042;-67
2023/01/01 00:51:51;;;;;;;8.65;5.82;;;;;;;1.17;89.04;98988.72;5118352;27;20357;-68
2023/01/01 00:54:15;;;;;;;8.13;5.30;;;;;;;1.25;89.20;98991.84;5099693;27;20039;-64
2023/01/01 00:56:40;;;;;;;9.05;5.20;;;;;;;1.31;90.04;98978.47;5099374;27;20047;-64
2023/01/01 00:59:05;;;;;;;11.25;5.82;;;;;;;1.27;89.52;98974.25;5099362;27;20508;-63
2023/01/01 01:01:29;;;;;;;10.45;5.82;;;;;;;1.20;89.59;98978.09;5087802;27;20416;-63
2023/01/01 01:03:54;;;;;;;9.00;6.65;;;;;;;1.20;89.29;98978.09;5079049;27;20113;-63
2023/01/01 01:06:20;;;;;;;11.70;7.05;;;;;;;1.04;89.43;98967.38;5106783;27;20103;-64
2023/01/01 01:08:45;;;;;;;8.18;5.75;;;;;;;1.08;89.79;98963.72;5122527;27;20062;-63
2023/01/01 01:11:15;;;;;;;10.38;6.43;;;;;;;1.11;89.53;98949.63;5099821;27;20510;-64
2023/01/01 01:13:41;;;;;;;9.60;6.20;;;;;;;1.08;90.00;98969.81;5118253;27;20041;-64
2023/01/01 01:16:09;;;;;;;9.43;5.45;;;;;;;1.19;89.59;98947.50;5118741;27;20042;-64
2023/01/01 01:18:34;;;;;;;6.85;4.53;;;;;;;1.37;90.51;98941.41;5099676;27;20069;-64
2023/01/01 01:20:58;;;;;;;15.45;9.55;;;;;;;1.11;90.17;98931.25;5099745;27;20512;-62
2023/01/01 01:23:23;;;;;;;10.13;6.82;;;;;;;1.22;89.98;98929.00;5100532;27;20049;-62
2023/01/01 01:25:48;;;;;;;10.05;6.70;;;;;;;1.14;89.79;98934.56;5100390;27;20046;-62
2023/01/01 01:28:12;;;;;;;7.80;5.40;;;;;;;1.19;89.75;98931.75;5118776;27;20037;-63
2023/01/01 01:30:38;;;;;;;9.50;5.45;;;;;;;1.11;89.60;98937.34;5068900;27;20042;-63
2023/01/01 01:33:03;;;;;;;7.00;4.60;;;;;;;1.08;89.94;98926.97;5116525;27;20196;-69
2023/01/01 01:35:28;;;;;;;14.85;6.53;;;;;;;1.03;89.54;98927.16;5095892;27;20137;-74
2023/01/01 01:37:53;;;;;;;9.77;5.05;;;;;;;1.18;89.80;98919.53;5116961;27;20031;-70
2023/01/01 01:40:18;;;;;;;7.13;5.25;;;;;;;1.29;89.86;98914.66;5117230;27;20058;-71
2023/01/01 01:42:49;;;;;;;9.27;5.90;;;;;;;1.26;89.69;98914.78;5081125;27;20038;-69
2023/01/01 01:45:15;;;;;;;7.28;5.18;;;;;;;1.19;89.36;98916.00;5114998;27;20043;-78
2023/01/01 01:47:55;;;;;;;11.88;5.78;;;;;;;1.19;89.63;98911.59;5118720;27;20038;-75
2023/01/01 01:50:33;;;;;;;7.45;4.90;;;;;;;1.22;89.49;98910.63;5085340;27;20047;-71
2023/01/01 01:53:23;;;;;;;6.93;4.15;;;;;;;1.41;89.37;98917.56;5117147;27;20039;-74
2023/01/01 01:55:52;;;;;;;9.07;5.07;;;;;;;1.43;89.57;98896.50;5080811;27;20066;-72
2023/01/01 01:58:17;;;;;;;7.07;5.25;;;;;;;1.59;90.42;98896.59;5072614;27;20509;-76
2023/01/01 02:00:42;;;;;;;9.43;5.40;;;;;;;1.40;89.52;98896.63;5095507;27;20043;-72
2023/01/01 02:03:18;;;;;;;8.75;4.72;;;;;;;1.47;89.98;98892.78;5092479;27;20039;-76
2023/01/01 02:05:43;;;;;;;10.93;4.70;;;;;;;1.40;89.80;98894.00;5087839;27;20043;-75
2023/01/01 02:08:09;;;;;;;7.85;4.68;;;;;;;1.39;89.61;98884.41;5092368;27;20045;-73
2023/01/01 02:10:33;;;;;;;7.65;5.25;;;;;;;1.38;89.75;98886.19;5093668;27;20040;-70
2023/01/01 02:12:58;;;;;;;7.85;5.18;;;;;;;1.34;89.27;98892.53;5070217;27;20047;-72
2023/01/01 02:16:14;;;;;;;9.18;5.53;;;;;;;1.20;88.72;98883.56;5068227;27;20490;-75
2023/01/01 02:18:50;;;;;;;7.88;4.80;;;;;;;1.38;89.01;98878.31;5074644;27;20042;-68
2023/01/01 02:21:29;;;;;;;6.85;4.72;;;;;;;1.54;89.05;98875.84;5095599;27;20497;-68
2023/01/01 02:24:24;;;;;;;9.02;5.05;;;;;;;1.52;89.17;98869.78;5079323;27;20147;-67
2023/01/01 02:26:56;;;;;;;;;;;;;;;1.62;89.05;98878.09;5082132;27;20030;-66
2023/01/01 02:29:28;;;;;;;6.72;4.20;;;;;;;1.52;88.57;98871.56;5097944;27;19915;-66
2023/01/01 02:32:05;;;;;;;6.72;4.45;;;;;;;1.56;89.10;98873.13;5095210;27;20035;-68
2023/01/01 02:34:39;;;;;;;8.10;4.95;;;;;;;1.43;88.83;98863.22;5077449;27;20529;-68
2023/01/01 02:37:06;;;;;;;;;;;;;;;1.51;88.63;98868.09;5077656;27;20041;-67
2023/01/01 02:39:34;;;;;;;5.93;4.50;;;;;;;1.47;88.66;98863.88;5096009;27;19915;-71
2023/01/01 02:42:01;;;;;;;8.57;5.22;;;;;;;1.49;88.54;98866.44;5095618;27;20047;-68
2023/01/01 02:44:29;;;;;;;9.75;5.80;;;;;;;1.48;88.54;98867.38;5046469;27;20051;-76
2023/01/01 02:46:53;;;;;;;9.35;4.45;;;;;;;1.58;88.67;98860.78;5078656;27;20075;-73
2023/01/01 02:49:18;;;;;;;7.63;4.93;;;;;;;1.53;88.84;98847.00;5095678;27;20110;-69
2023/01/01 02:52:04;;;;;;;8.10;5.47;;;;;;;1.59;88.90;98851.94;5095238;27;20035;-68
2023/01/01 02:55:01;;;;;;;7.38;4.70;;;;;;;1.57;88.21;98843.31;5077722;28;20038;-71
2023/01/01 02:57:45;;;;;;;7.03;5.22;;;;;;;1.60;88.53;98825.63;5096244;27;20485;-73
2023/01/01 03:00:26;;;;;;;8.60;6.25;;;;;;;1.57;88.48;98819.69;5096017;27;20039;-70
2023/01/01 03:03:07;;;;;;;5.13;3.83;;;;;;;1.64;88.55;98813.19;5095104;27;20045;-68
2023/01/01 03:09:11;;;;;;;7.88;4.60;;;;;;;1.67;88.50;98808.66;5076119;27;20122;-71
2023/01/01 03:12:04;;;;;;;8.00;4.97;;;;;;;1.72;88.81;98805.78;5088915;28;20124;-72
2023/01/01 03:14:32;;;;;;;11.02;6.25;;;;;;;1.56;89.18;98807.47;5057343;28;20039;-72
2023/01/01 03:17:03;;;;;;;7.97;5.75;;;;;;;1.53;88.88;98816.34;5063028;28;20124;-72
2023/01/01 03:19:36;;;;;;;10.35;7.30;;;;;;;1.55;88.92;98817.13;5077531;28;20501;-71
2023/01/01 03:22:08;;;;;;;10.95;6.22;;;;;;;1.56;88.88;98804.84;5095402;28;20039;-72
2023/01/01 03:24:44;;;;;;;7.47;5.68;;;;;;;1.60;88.70;98809.00;5077761;28;20035;-72
2023/01/01 03:27:14;;;;;;;9.73;5.95;;;;;;;1.77;89.16;98806.41;5095927;28;20067;-72
2023/01/01 03:29:41;;;;;;;6.03;4.28;;;;;;;1.70;88.85;98795.34;5095528;28;20050;-74
2023/01/01 03:32:13;;;;;;;10.68;7.13;;;;;;;1.42;88.45;98787.97;5077492;28;20039;-72
2023/01/01 03:34:44;;;;;;;8.55;5.93;;;;;;;1.50;88.59;98773.59;5090861;28;20047;-72
2023/01/01 03:37:18;;;;;;;9.20;5.90;;;;;;;1.52;88.80;98767.34;5068354;28;20043;-73
2023/01/01 03:39:49;;;;;;;7.82;5.50;;;;;;;1.70;89.47;98763.81;5071006;28;20047;-72
2023/01/01 03:42:35;;;;;;;10.20;6.43;;;;;;;1.61;89.40;98764.28;5076736;28;20417;-71
2023/01/01 03:45:05;;;;;;;7.65;5.40;;;;;;;1.65;89.18;98757.94;5076388;28;20035;-68
2023/01/01 03:47:30;;;;;;;7.90;5.72;;;;;;;1.58;89.01;98740.78;5076650;28;20050;-69
2023/01/01 03:49:56;;;;;;;9.45;6.60;;;;;;;1.54;88.79;98739.25;5076537;28;20053;-67
2023/01/01 03:52:50;;;;;;;10.00;6.40;;;;;;;1.63;88.55;98748.44;5083778;27;20034;-67
2023/01/01 03:55:30;;;;;;;7.32;5.00;;;;;;;1.75;88.78;98735.53;5080652;28;20034;-67
2023/01/01 03:58:11;;;;;;;8.27;5.70;;;;;;;1.75;89.15;98726.81;5076070;28;20397;-68
2023/01/01 04:00:43;;;;;;;8.07;5.82;;;;;;;1.60;88.55;98728.41;5058633;27;20053;-67
2023/01/01 04:03:26;;;;;;;10.35;6.35;;;;;;;1.54;88.19;98730.50;5079304;27;20148;-66
2023/01/01 04:05:51;;;;;;;9.02;6.10;;;;;;;1.53;88.42;98726.19;5107808;27;20078;-67
2023/01/01 04:08:16;;;;;;;9.25;6.28;;;;;;;1.57;88.23;98736.47;5094329;27;20062;-68
2023/01/01 04:10:46;;;;;;;7.80;5.45;;;;;;;1.68;88.58;98739.41;5098241;27;20050;-65
2023/01/01 04:13:10;;;;;;;11.70;6.80;;;;;;;1.66;88.48;98733.38;5048602;27;20073;-64
2023/01/01 04:15:35;;;;;;;8.10;5.47;;;;;;;1.66;88.41;98727.28;5063078;27;20070;-64
2023/01/01 04:18:00;;;;;;;10.93;6.75;;;;;;;1.62;88.26;98718.69;5079912;27;20046;-63
2023/01/01 04:20:25;;;;;;;9.88;5.47;;;;;;;1.64;88.83;98711.59;5098590;27;20039;-63
2023/01/01 04:22:49;;;;;;;10.30;6.22;;;;;;;1.67;88.48;98714.06;5098434;27;20096;-63
2023/01/01 04:25:16;;;;;;;6.90;5.15;;;;;;;1.73;nan;98719.00;5098188;27;20255;-69
2023/01/01 04:27:40;;;;;;;8.10;5.38;;;;;;;1.74;88.45;98718.06;5098281;27;20125;-69
2023/01/01 04:30:08;;;;;;;6.93;5.43;;;;;;;1.74;88.32;98714.59;5079876;27;20131;-69
2023/01/01 04:32:33;;;;;;;7.95;5.78;;;;;;;1.76;88.75;98703.09;5097756;27;20466;-69
2023/01/01 04:34:57;;;;;;;8.02;5.78;;;;;;;1.76;88.70;98705.72;5067616;28;20569;-68
2023/01/01 04:37:22;;;;;;;8.57;5.60;;;;;;;1.80;88.74;98704.66;5081487;27;20990;-69
2023/01/01 04:39:47;;;;;;;8.98;5.18;;;;;;;1.85;88.92;98693.88;5097979;27;20054;-67
2023/01/01 04:42:11;;;;;;;8.40;6.15;;;;;;;1.85;88.69;98701.75;5079726;27;20051;-68
2023/01/01 04:44:36;;;;;;;7.72;5.50;;;;;;;1.72;88.20;98701.53;5097778;27;20050;-69
2023/01/01 04:47:01;;;;;;;10.40;6.22;;;;;;;1.76;88.57;98697.84;5098042;27;20031;-68
2023/01/01 04:49:26;;;;;;;6.72;4.93;;;;;;;1.79;88.85;98699.47;5079828;27;20039;-68
2023/01/01 04:51:50;;;;;;;10.65;5.30;;;;;;;1.83;88.45;98696.59;5056054;28;20134;-69
2023/01/01 04:54:15;;;;;;;9.55;5.72;;;;;;;1.85;88.54;98704.41;5093262;27;20165;-68
2023/01/01 04:56:40;;;;;;;9.10;5.60;;;;;;;1.76;88.28;98689.09;5081368;27;20134;-68
2023/01/01 04:59:05;;;;;;;8.05;5.60;;;;;;;1.80;88.22;98673.13;5098504;27;20408;-70
2023/01/01 05:01:31;;;;;;;7.97;5.38;;;;;;;1.80;88.34;98688.88;5079623;27;20050;-72
2023/01/01 05:03:56;;;;;;;7.85;5.03;;;;;;;1.93;88.35;98690.84;5079476;27;20039;-71
2023/01/01 05:06:21;;;;;;;8.65;5.15;;;;;;;1.87;88.14;98701.69;5097695;27;20046;-70
2023/01/01 05:08:47;;;;;;;10.57;6.82;;;;;;;1.75;87.93;98695.28;5062303;27;20042;-69
2023/01/01 05:11:15;;;;;;;9.70;5.95;;;;;;;1.86;87.90;98695.59;5058652;28;20050;-70
2023/01/01 05:13:42;;;;;;;8.52;5.85;;;;;;;1.83;87.90;98688.69;5096651;27;20520;-70
2023/01/01 05:16:09;;;;;;;8.88;5.68;;;;;;;1.87;88.02;98678.03;5079081;27;20567;-70
2023/01/01 05:18:34;;;;;;;6.78;5.45;;;;;;;1.81;87.68;98680.03;5097270;27;20057;-62
2023/01/01 05:21:03;;;;;;;6.85;4.97;;;;;;;1.89;87.97;98677.03;5096738;27;20103;-63
2023/01/01 05:23:28;;;;;;;7.00;5.32;;;;;;;1.81;88.11;98673.94;5047339;27;20051;-62
2023/01/01 05:25:53;;;;;;;7.43;5.10;;;;;;;1.89;87.95;98678.81;5054066;28;20046;-64
2023/01/01 05:28:18;;;;;;;9.75;5.75;;;;;;;1.97;88.21;98679.25;5058719;28;20036;-63
2023/01/01 05:30:42;;;;;;;10.48;6.07;;;;;;;1.93;88.25;98675.06;5096801;27;20100;-63
2023/01/01 05:33:07;;;;;;;7.85;5.40;;;;;;;1.86;87.91;98671.94;5078978;27;20043;-63
2023/01/01 05:35:31;;;;;;;7.53;6.18;;;;;;;1.89;87.96;98684.06;5061110;27;20122;-63
2023/01/01 05:37:56;;;;;;;7.57;5.45;;;;;;;1.95;88.57;98670.59;5097234;27;20031;-64
2023/01/01 05:40:21;;;;;;;6.63;5.15;;;;;;;2.04;88.60;98676.22;5096973;27;20134;-62
2023/01/01 05:42:46;;;;;;;7.07;5.13;;;;;;;2.02;88.53;98682.50;5096624;27;20046;-62
2023/01/01 05:45:11;;;;;;;9.35;5.47;;;;;;;2.15;88.42;98671.25;5097089;27;20046;-63
2023/01/01 05:47:35;;;;;;;6.70;4.53;;;;;;;2.11;88.17;98671.50;5097560;27;20051;-62
2023/01/01 05:50:00;;;;;;;7.10;5.07;;;;;;;2.10;87.99;98664.53;5079914;27;20046;-63
2023/01/01 05:52:25;;;;;;;9.98;6.28;;;;;;;2.05;87.94;98671.81;5098038;27;20082;-63
2023/01/01 05:54:49;;;;;;;7.82;5.25;;;;;;;2.07;87.67;98649.78;5097962;27;20039;-63
2023/01/01 05:57:14;;;;;;;6.95;4.90;;;;;;;2.07;87.72;98648.94;5070663;28;20055;-64
2023/01/01 05:59:39;;;;;;;6.25;4.47;;;;;;;2.06;87.16;98647.22;5074924;27;20047;-62
2023/01/01 06:02:04;;;;;;;7.25;5.47;;;;;;;2.05;87.18;98651.63;5053900;28;20082;-62
2023/01/01 06:04:28;;;;;;;6.63;4.50;;;;;;;2.11;87.43;98653.97;5068449;28;20051;-63
2023/01/01 06:06:53;;;;;;;7.97;4.57;;;;;;;2.05;87.11;98653.41;5055931;28;20046;-62
2023/01/01 06:09:17;;;;;;;7.63;4.88;;;;;;;2.07;87.84;98646.31;5070472;27;20047;-63
2023/01/01 06:11:42;;;;;;;5.50;4.43;;;;;;;2.01;87.89;98649.28;5047735;27;20042;-68
2023/01/01 06:14:07;;;;;;;5.63;4.57;;;;;;;2.07;88.03;98643.66;5096391;27;20046;-69
2023/01/01 06:16:31;;;;;;;5.90;3.95;;;;;;;2.10;87.98;98635.63;5077950;27;20444;-70
2023/01/01 06:18:56;;;;;;;6.30;3.83;;;;;;;2.12;88.19;98628.53;5096120;27;20047;-69
2023/01/01 06:21:24;;;;;;;5.60;4.38;;;;;;;2.07;87.98;98638.41;5096226;27;20118;-70
2023/01/01 06:23:49;;;;;;;6.72;5.20;;;;;;;2.10;87.93;98644.38;5095784;27;20071;-70
2023/01/01 06:26:22;;;;;;;5.28;3.28;;;;;;;2.25;88.08;98632.19;5077916;27;20120;-63
2023/01/01 06:28:47;;;;;;;3.88;3.42;;;;;;;2.14;88.32;98629.28;5057293;28;20538;-63
2023/01/01 06:31:15;;;;;;;7.20;5.05;;;;;;;2.04;88.21;98639.41;5039529;28;20031;-63
2023/01/01 06:33:40;;;;;;;6.65;4.40;;;;;;;2.11;88.50;98632.06;5091410;27;20436;-63
2023/01/01 06:36:07;;;;;;;6.10;4.50;;;;;;;2.06;88.37;98637.56;5060438;27;20501;-63
2023/01/01 06:38:37;;;;;;;6.55;4.10;;;;;;;2.07;88.18;98641.91;5077646;27;20039;-64
2023/01/01 06:41:07;;;;;;;6.05;4.60;;;;;;;2.14;89.01;98626.66;5077154;27;20067;-64
2023/01/01 06:43:34;;;;;;;4.97;4.40;;;;;;;2.29;89.67;98611.81;5060411;27;20108;-62
2023/01/01 06:46:07;;;;;;;4.65;3.30;;;;;;;2.30;89.36;98614.38;5077888;27;20035;-63
2023/01/01 06:48:34;;;;;;;6.30;4.60;;;;;;;2.11;88.98;98614.53;5077851;27;20035;-64
2023/01/01 06:51:05;;;;;;;6.75;4.82;;;;;;;2.15;88.78;98600.25;5077199;27;20046;-64
2023/01/01 06:53:29;;;;;;;6.72;4.22;;;;;;;2.23;88.78;98591.97;5095904;27;20035;-63
2023/01/01 06:55:54;;;;;;;7.03;4.60;;;;;;;2.24;88.91;98588.41;5077222;27;20088;-63
2023/01/01 06:58:19;;;;;;;6.65;4.95;;;;;;;2.34;89.17;98578.25;5058182;28;20158;-63
2023/01/01 07:00:43;;;;;;;6.85;4.28;;;;;;;2.28;88.96;98581.19;5075246;28;20107;-63
2023/01/01 07:03:11;;;;;;;6.75;3.90;;;;;;;2.23;88.81;98585.88;5073392;27;20043;-63
2023/01/01 07:05:36;;;;;;;6.43;4.70;;;;;;;2.19;88.52;98590.44;5095314;27;20082;-62
2023/01/01 07:08:00;;;;;;;7.80;4.38;;;;;;;2.23;88.43;98584.09;5095980;27;20078;-63
2023/01/01 07:10:25;;;;;;;7.05;3.95;;;;;;;2.28;88.12;98596.97;5079679;28;20520;-63
2023/01/01 07:12:49;;;;;;;5.70;3.88;;;;;;;2.32;88.18;98591.47;5079752;28;20042;-63
2023/01/01 07:15:14;;;;;;;6.43;4.45;;;;;;;2.39;88.24;98578.81;5061355;28;20917;-63
2023/01/01 07:17:38;;;;;;;7.38;4.53;;;;;;;2.43;88.63;98570.69;5067818;28;20039;-63
2023/01/01 07:20:03;;;;;;;6.95;4.15;;;;;;;2.37;88.37;98578.91;5077689;28;20093;-63
2023/01/01 07:22:28;;;;;;;5.20;3.80;;;;;;;2.43;87.85;98582.97;5061342;28;20035;-62
2023/01/01 07:24:53;;;;;;;6.60;4.30;;;;;;;2.48;88.46;98567.81;5078181;28;20046;-63
2023/01/01 07:27:17;;;;;;;5.57;4.28;;;;;;;2.46;88.40;98570.53;5095469;28;20039;-63
2023/01/01 07:29:42;;;;;;;5.90;4.35;;;;;;;2.50;88.27;98564.13;5095027;28;20566;-64
2023/01/01 07:32:12;;;;;;;5.55;3.60;;;;;;;2.50;87.95;98572.03;5076878;28;20039;-63
2023/01/01 07:34:37;;;;;;;5.68;4.43;;;;;;;2.54;87.88;98570.09;5076795;28;20046;-64
2023/01/01 07:37:01;;;;;;;5.40;3.80;;;;;;;2.61;88.18;98566.16;5084083;27;20038;-64
2023/01/01 07:39:26;;;;;;;5.43;3.58;;;;;;;2.70;88.31;98572.72;5097786;27;20141;-70
2023/01/01 07:41:50;;;;;;;4.38;3.85;;;;;;;2.59;88.37;98572.47;5077020;28;20103;-69
2023/01/01 07:44:15;;;;;;;4.30;3.65;;;;;;;2.58;87.98;98555.84;5081885;27;20047;-71
2023/01/01 07:46:41;;;;;;;5.75;4.47;;;;;;;2.63;88.08;98563.44;5063908;28;20112;-72
2023/01/01 07:49:05;;;;;;;6.03;4.20;;;;;;;2.53;87.70;98556.06;5066818;28;20047;-69
2023/01/01 07:51:30;;;;;;;5.05;4.18;;;;;;;2.63;87.68;98558.19;5096808;27;20121;-70
2023/01/01 07:53:54;;;;;;;6.20;4.07;;;;;;;2.80;88.74;98545.78;5099788;27;20066;-71
2023/01/01 07:56:19;;;;;;;6.50;4.68;;;;;;;2.73;88.79;98541.78;5098974;27;20045;-69
2023/01/01 07:58:44;;;;;;;5.00;3.72;;;;;;;2.66;88.73;98553.59;5098834;27;20051;-69
2023/01/01 08:01:10;;;;;;;7.10;4.18;;;;;;;2.60;88.13;98555.75;5080604;27;20039;-71
2023/01/01 08:03:35;;;;;;;5.50;4.32;;;;;;;2.63;88.10;98543.25;5099238;27;20419;-67
2023/01/01 08:06:05;;;;;;;5.70;4.22;;;;;;;2.73;88.04;98538.31;5063673;27;20470;-69
2023/01/01 08:08:29;;;;;;;6.55;4.03;;;;;;;2.67;88.33;98551.81;5082356;27;20039;-64
2023/01/01 08:11:00;;;;;;;7.38;5.38;;;;;;;2.52;88.20;98543.84;5080359;27;20089;-63
2023/01/01 08:13:24;;;;;;;4.85;3.95;;;;;;;2.66;88.51;98529.94;5098361;27;20077;-65
2023/01/01 08:15:50;;;;;;;6.95;4.85;;;;;;;2.74;88.38;98543.47;5063090;27;20499;-63
2023/01/01 08:18:15;;;;;;;6.25;4.57;;;;;;;2.76;88.31;98543.41;5048755;27;20457;-64
2023/01/01 08:20:39;;;;;;;5.22;4.28;;;;;;;2.77;88.15;98539.84;5080581;27;20412;-63
2023/01/01 08:23:04;;;;;;;6.50;4.18;;;;;;;2.79;88.28;98544.09;5098877;27;20049;-64
2023/01/01 08:25:28;;;;;;;4.97;3.85;;;;;;;2.85;88.11;98537.59;5098475;27;20088;-63
2023/01/01 08:27:53;;;;;;;7.68;4.85;;;;;;;2.96;88.73;98532.56;5069998;28;20059;-63
2023/01/01 08:30:18;;;;;;;6.60;4.35;;;;;;;2.96;88.89;98537.81;5075609;27;20049;-63
2023/01/01 08:32:42;;;;;;;5.35;4.10;;;;;;;2.85;88.39;98534.97;5079710;27;20042;-62
2023/01/01 08:35:07;;;;;;;5.22;3.58;;;;;;;2.91;88.16;98534.63;5066072;28;20043;-62
2023/01/01 08:37:32;;;;;;;7.93;4.78;;;;;;;2.92;88.07;98537.19;5079685;27;20376;-64
2023/01/01 08:39:57;;;;;;;6.45;4.18;;;;;;;3.04;88.44;98517.19;5080163;27;20442;-63
2023/01/01 08:42:23;;;;;;;8.68;5.35;;;;;;;2.93;87.98;98519.59;5098401;27;20043;-63
2023/01/01 08:44:47;;;;;;;5.75;4.47;;;;;;;3.05;88.21;98503.06;5043182;28;20039;-68
2023/01/01 08:47:17;;;;;;;6.45;4.20;;;;;;;3.11;88.31;98486.06;5050944;28;20039;-68
2023/01/01 08:49:42;;;;;;;7.45;5.25;;;;;;;3.15;88.63;98498.97;5060307;28;20612;-67
2023/01/01 08:52:06;;;;;;;8.85;5.25;;;;;;;3.13;88.46;98489.47;5042526;28;20556;-69
2023/01/01 08:54:31;;;;;;;8.32;5.38;;;;;;;3.15;88.47;98496.34;5074320;27;20580;-68
2023/01/01 08:56:55;;;;;;;8.05;4.65;;;;;;;3.21;87.85;98498.59;5098503;27;20072;-70
2023/01/01 08:59:20;;;;;;;7.88;5.20;;;;;;;3.15;88.15;98503.38;5080303;27;20058;-67
2023/01/01 09:01:44;;;;;;;8.80;5.70;;;;;;;3.11;88.13;98500.06;5079499;27;20400;-69
2023/01/01 09:04:11;;;;;;;8.35;5.30;;;;;;;3.12;88.15;98501.78;5080806;27;20039;-70
2023/01/01 09:06:36;;;;;;;7.53;5.47;;;;;;;3.10;87.87;98495.75;5079822;27;20049;-70
2023/01/01 09:09:00;;;;;;;7.30;5.05;;;;;;;3.19;87.92;98495.19;5079538;27;20043;-70
2023/01/01 09:11:27;;;;;;;7.07;4.85;;;;;;;3.29;87.76;98498.97;5079786;27;20043;-70
2023/01/01 09:13:52;;;;;;;7.35;4.85;;;;;;;3.36;88.24;98491.56;5099588;27;20144;-70
2023/01/01 09:16:17;;;;;;;9.00;5.95;;;;;;;3.33;87.85;98480.34;5102396;27;20133;-70
2023/01/01 09:18:42;;;;;;;7.70;5.63;;;;;;;3.27;87.67;98484.22;5084481;27;20078;-71
2023/01/01 09:21:07;;;;;;;6.15;4.72;;;;;;;3.34;87.92;98461.81;5049106;28;20035;-70
2023/01/01 09:23:32;;;;;;;7.95;5.75;;;;;;;3.26;87.46;98451.75;5099843;27;20063;-69
2023/01/01 09:26:02;;;;;;;6.95;4.88;;;;;;;3.32;87.48;98468.13;5069148;27;20038;-70
2023/01/01 09:28:28;;;;;;;8.48;5.30;;;;;;;3.41;87.82;98462.28;5065654;27;20042;-69
2023/01/01 09:30:53;;;;;;;9.45;6.45;;;;;;;3.47;88.54;98462.78;5077556;28;20204;-67
2023/01/01 09:33:17;;;;;;;8.55;5.47;;;;;;;3.47;88.04;98457.50;5082904;27;20144;-70
2023/01/01 09:35:43;;;;;;;7.78;5.15;;;;;;;3.47;87.72;98456.66;5084729;27;20039;-70
2023/01/01 09:38:08;;;;;;;6.53;4.95;;;;;;;3.43;87.94;98449.88;5100064;27;20043;-68
2023/01/01 09:41:09;;;;;;;8.52;5.13;;;;;;;3.62;88.14;98453.91;5068065;28;20044;-68
2023/01/01 09:44:01;;;;;;;9.40;6.20;;;;;;;3.46;87.56;98445.25;5087057;27;20446;-69
2023/01/01 09:46:26;;;;;;;6.30;4.57;;;;;;;3.39;87.36;98443.09;5079877;27;20042;-69
2023/01/01 09:48:58;;;;;;;9.70;5.90;;;;;;;3.46;88.03;98437.34;5082604;27;20035;-68
2023/01/01 09:51:25;;;;;;;8.35;5.93;;;;;;;3.40;87.58;98444.78;5083717;27;20043;-71
2023/01/01 09:53:59;;;;;;;9.40;6.40;;;;;;;3.31;87.92;98448.81;5082405;27;20490;-70
2023/01/01 09:56:29;;;;;;;8.65;5.60;;;;;;;3.42;88.14;98448.16;5069073;27;20043;-69
2023/01/01 09:58:58;;;;;;;8.13;5.45;;;;;;;3.42;88.12;98430.56;5064613;28;20059;-69
2023/01/01 10:01:41;;;;;;;9.27;6.18;;;;;;;3.43;88.01;98428.78;5053405;27;20045;-69
2023/01/01 10:04:05;;;;;;;10.05;5.38;;;;;;;3.47;87.94;98422.41;5111895;27;20050;-70
2023/01/01 10:06:33;;;;;;;8.43;5.43;;;;;;;3.55;87.88;98425.41;5111893;27;20043;-69
2023/01/01 10:09:21;;;;;;;7.43;5.28;;;;;;;3.56;87.78;98422.66;5086622;28;20164;-70
2023/01/01 10:11:53;;;;;;;8.20;5.43;;;;;;;3.47;87.55;98419.75;5108070;27;20069;-71
2023/01/01 10:14:40;;;;;;;6.10;4.60;;;;;;;3.60;88.08;98411.00;5115702;27;20047;-70
2023/01/01 10:17:14;;;;;;;8.80;5.82;;;;;;;3.59;87.93;98408.47;5116536;27;20039;-73
2023/01/01 10:19:47;;;;;;;6.35;5.38;;;;;;;3.64;87.58;98403.72;5096931;27;20043;-69
2023/01/01 10:22:35;;;;;;;6.43;4.75;;;;;;;3.73;87.65;98397.88;5114784;27;20063;-69
2023/01/01 10:25:15;;;;;;;7.78;4.68;;;;;;;3.70;87.81;98400.72;5115900;27;20107;-74
2023/01/01 10:27:58;;;;;;;6.90;4.80;;;;;;;3.68;87.68;98386.78;5116275;27;20096;-73
2023/01/01 10:30:24;;;;;;;5.75;3.90;;;;;;;3.64;87.15;98385.28;5114777;27;20095;-73
2023/01/01 10:32:54;;;;;;;7.93;5.05;;;;;;;3.68;87.15;98381.53;5080943;27;20035;-68
2023/01/01 10:35:22;;;;;;;8.38;4.95;;;;;;;3.74;87.82;98375.00;5099476;27;20087;-68
2023/01/01 10:37:48;;;;;;;6.85;4.32;;;;;;;3.71;87.49;98368.16;5071078;28;20040;-69
2023/01/01 10:40:19;;;;;;;6.15;4.80;;;;;;;3.73;87.48;98362.75;5089445;27;20039;-70
2023/01/01 10:42:50;;;;;;;5.20;4.07;;;;;;;3.76;87.34;98373.97;5080292;27;20098;-69
2023/01/01 10:45:36;;;;;;;5.40;4.30;;;;;;;3.74;87.75;98367.94;5080906;27;20035;-72
2023/01/01 10:48:17;;;;;;;4.53;3.60;;;;;;;3.84;87.27;98371.66;5098854;27;20053;-69
2023/01/01 10:51:12;;;;;;;4.97;3.83;;;;;;;3.82;87.34;98354.28;5073347;28;20047;-72
2023/01/01 10:53:49;;;;;;;5.38;4.00;;;;;;;3.94;87.94;98356.13;5087606;27;20101;-71
2023/01/01 10:56:16;;;;;;;5.78;3.92;;;;;;;3.93;87.49;98349.16;5096650;27;20031;-72
2023/01/01 10:58:46;;;;;;;6.63;3.53;;;;;;;3.94;87.39;98335.03;5081424;28;20517;-69
2023/01/01 11:01:17;;;;;;;5.18;4.07;;;;;;;3.95;87.54;98345.47;5080869;27;20445;-70
2023/01/01 11:03:54;;;;;;;7.47;4.03;;;;;;;3.88;86.96;98341.53;5081707;27;20455;-68
2023/01/01 11:06:23;;;;;;;8.05;4.38;;;;;;;3.84;86.76;98342.66;5053005;27;20120;-74
2023/01/01 11:08:57;;;;;;;5.35;3.65;;;;;;;3.89;87.16;98337.97;5120273;27;20045;-68
2023/01/01 11:11:28;;;;;;;;;;;;;;;3.98;87.31;98342.63;5105665;27;20050;-69
2023/01/01 11:13:55;;;;;;;5.43;3.70;;;;;;;4.03;87.13;98339.69;5104527;27;20409;-69
2023/01/01 11:16:20;;;;;;;8.15;5.18;;;;;;;3.93;87.42;98330.72;5125046;27;20047;-69
2023/01/01 11:18:46;;;;;;;7.13;4.47;;;;;;;3.87;87.56;98339.00;5090916;27;20054;-69
2023/01/01 11:21:20;;;;;;;8.43;4.40;;;;;;;3.91;87.42;98338.72;5128200;27;20041;-69
2023/01/01 11:23:45;;;;;;;5.68;4.43;;;;;;;3.90;87.63;98329.09;5109036;27;20042;-69
2023/01/01 11:26:13;;;;;;;4.20;3.50;;;;;;;3.84;87.54;98326.84;5082875;28;20039;-68
2023/01/01 11:28:39;;;;;;;4.25;3.50;;;;;;;3.92;87.76;98331.66;5108149;27;20042;-69
2023/01/01 11:31:06;;;;;;;5.78;3.95;;;;;;;3.86;87.98;98332.03;5125169;27;20070;-71
2023/01/01 11:33:35;;;;;;;4.65;3.88;;;;;;;3.82;88.34;98320.88;5104441;27;20501;-71
2023/01/01 11:36:00;;;;;;;4.45;3.42;;;;;;;3.83;88.51;98325.19;5120161;27;20616;-72
2023/01/01 11:38:25;;;;;;;4.35;3.58;;;;;;;3.76;87.89;98321.25;5102673;27;20050;-73
2023/01/01 11:40:54;;;;;;;5.30;3.78;;;;;;;3.80;88.55;98317.47;5103012;27;20079;-72
2023/01/01 11:43:26;;;;;;;6.80;3.55;;;;;;;3.79;88.59;98310.50;5085016;27;20054;-72
2023/01/01 11:45:54;;;;;;;5.35;3.92;;;;;;;3.73;88.29;98304.78;5121895;27;20039;-71
2023/01/01 11:48:25;;;;;;;6.22;4.05;;;;;;;3.88;89.09;98304.63;5121781;27;20042;-69
2023/01/01 11:50:53;;;;;;;5.10;4.07;;;;;;;3.84;89.11;98308.41;5101277;27;20412;-71